createdAt,value
2023-05-09T00:00:06.551Z,101268.13
2023-05-09T00:02:36.265Z,101324.78
2023-05-09T00:05:05.419Z,101329.00
2023-05-09T00:07:33.868Z,101316.34
2023-05-09T00:10:04.133Z,101307.41
2023-05-09T00:12:32.593Z,101306.53
2023-05-09T00:15:01.270Z,101305.00
2023-05-09T00:17:31.360Z,101310.41
2023-05-09T00:20:01.644Z,101306.31
2023-05-09T00:22:30.119Z,101290.59
2023-05-09T00:24:58.563Z,101292.59
2023-05-09T00:27:30.768Z,101291.06
2023-05-09T00:29:59.519Z,101288.69
2023-05-09T00:32:29.276Z,101280.25
2023-05-09T00:34:57.841Z,101273.59
2023-05-09T00:37:26.483Z,101273.59
2023-05-09T00:39:54.905Z,101283.59
2023-05-09T00:42:23.344Z,101289.81
2023-05-09T00:44:53.125Z,101285.47
2023-05-09T00:47:24.290Z,101271.75
2023-05-09T00:49:52.887Z,101270.38
2023-05-09T00:52:23.458Z,101258.88
2023-05-09T00:54:53.043Z,101248.19
2023-05-09T00:57:21.760Z,101211.09
2023-05-09T00:59:53.874Z,101234.31
2023-05-09T01:02:22.534Z,101245.34
2023-05-09T01:04:51.309Z,101242.03
2023-05-09T01:07:28.994Z,101226.72
2023-05-09T01:10:07.712Z,101222.31
2023-05-09T01:12:45.390Z,101241.41
2023-05-09T01:15:23.785Z,101233.53
2023-05-09T01:17:59.667Z,101229.72
2023-05-09T01:20:34.754Z,101226.69
2023-05-09T01:23:32.768Z,101224.34
2023-05-09T01:26:06.019Z,101215.94
2023-05-09T01:28:57.113Z,101218.34
2023-05-09T01:31:28.716Z,101219.69
2023-05-09T01:34:01.328Z,101224.75
2023-05-09T01:36:33.292Z,101227.13
2023-05-09T01:39:04.522Z,101225.09
2023-05-09T01:41:37.531Z,101215.69
2023-05-09T01:44:10.513Z,101215.38
2023-05-09T01:46:41.483Z,101198.72
2023-05-09T01:49:12.387Z,101212.22
2023-05-09T01:51:43.859Z,101191.34
2023-05-09T01:54:14.890Z,101215.41
2023-05-09T01:56:44.706Z,101221.13
2023-05-09T01:59:16.426Z,101223.31
2023-05-09T02:01:48.233Z,101219.47
2023-05-09T02:04:18.571Z,101217.28
2023-05-09T02:06:50.833Z,101220.47
2023-05-09T02:09:20.224Z,101213.72
2023-05-09T02:11:48.764Z,101213.72
2023-05-09T02:14:17.374Z,101216.44
2023-05-09T02:16:47.777Z,101216.94
2023-05-09T02:19:16.989Z,101211.03
2023-05-09T02:21:45.424Z,101214.72
2023-05-09T02:24:14.222Z,101209.47
2023-05-09T02:26:43.319Z,101207.78
2023-05-09T02:29:13.186Z,101210.16
2023-05-09T02:31:43.992Z,101214.72
2023-05-09T02:34:15.362Z,101214.75
2023-05-09T02:36:44.587Z,101217.28
2023-05-09T02:39:13.324Z,101222.81
2023-05-09T02:41:41.749Z,101218.25
2023-05-09T02:44:10.089Z,101215.09
2023-05-09T02:46:38.468Z,101217.72
2023-05-09T02:49:07.191Z,101213.31
2023-05-09T02:51:37.038Z,101220.72
2023-05-09T02:54:06.586Z,101222.94
2023-05-09T02:56:35.006Z,101221.75
2023-05-09T02:59:03.557Z,101231.03
2023-05-09T03:01:32.111Z,101222.78
2023-05-09T03:04:00.556Z,101229.69
2023-05-09T03:06:29.133Z,101222.25
2023-05-09T03:08:58.890Z,101174.38
2023-05-09T03:11:27.847Z,101222.75
2023-05-09T03:13:56.361Z,101223.75
2023-05-09T03:16:24.996Z,101215.84
2023-05-09T03:18:53.598Z,101219.38
2023-05-09T03:21:23.132Z,101227.66
2023-05-09T03:23:51.755Z,101210.25
2023-05-09T03:26:23.660Z,101215.47
2023-05-09T03:28:52.534Z,101212.25
2023-05-09T03:31:21.545Z,101207.81
2023-05-09T03:33:50.196Z,101213.84
2023-05-09T03:36:18.669Z,101205.09
2023-05-09T03:38:47.228Z,101210.47
2023-05-09T03:41:17.811Z,101210.78
2023-05-09T03:43:50.897Z,101210.63
2023-05-09T03:46:19.428Z,101203.72
2023-05-09T03:48:49.891Z,101204.09
2023-05-09T03:51:18.875Z,101196.66
2023-05-09T03:53:47.841Z,101189.59
2023-05-09T03:56:17.048Z,101201.72
2023-05-09T03:58:53.646Z,101192.78
2023-05-09T04:01:22.718Z,101196.97
2023-05-09T04:03:52.348Z,101203.19
2023-05-09T04:06:22.103Z,101197.19
2023-05-09T04:08:50.517Z,101197.44
2023-05-09T04:11:21.829Z,101196.53
2023-05-09T04:13:51.102Z,101195.50
2023-05-09T04:16:39.607Z,101189.44
2023-05-09T04:19:08.467Z,101194.66
2023-05-09T04:21:37.712Z,101193.81
2023-05-09T04:24:07.501Z,101193.47
2023-05-09T04:26:48.384Z,101195.16
2023-05-09T04:29:21.362Z,101187.09
2023-05-09T04:31:56.528Z,101183.72
2023-05-09T04:34:29.843Z,101190.94
2023-05-09T04:37:03.065Z,101199.19
2023-05-09T04:39:32.266Z,101199.19
2023-05-09T04:42:07.710Z,101193.16
2023-05-09T04:44:36.282Z,101197.50
2023-05-09T04:47:06.821Z,101193.63
2023-05-09T04:49:35.361Z,101193.97
2023-05-09T04:52:04.093Z,101196.81
2023-05-09T04:54:32.552Z,101198.66
2023-05-09T04:57:13.651Z,101194.28
2023-05-09T04:59:43.654Z,101193.28
2023-05-09T05:02:16.188Z,101194.31
2023-05-09T05:04:45.113Z,101199.34
2023-05-09T05:07:13.974Z,101201.41
2023-05-09T05:09:42.571Z,101202.25
2023-05-09T05:12:11.184Z,101201.06
2023-05-09T05:14:41.459Z,101196.53
2023-05-09T05:17:12.179Z,101196.84
2023-05-09T05:19:41.955Z,101204.63
2023-05-09T05:22:10.488Z,101201.06
2023-05-09T05:24:41.478Z,101204.44
2023-05-09T05:27:10.481Z,101209.19
2023-05-09T05:29:39.091Z,101207.38
2023-05-09T05:32:08.011Z,101210.56
2023-05-09T05:34:36.496Z,101204.69
2023-05-09T05:37:06.723Z,101217.34
2023-05-09T05:39:35.352Z,101213.00
2023-05-09T05:42:04.654Z,101101.94
2023-05-09T05:44:33.151Z,101213.50
2023-05-09T05:47:01.703Z,101203.75
2023-05-09T05:49:30.282Z,101206.78
2023-05-09T05:51:58.755Z,101202.63
2023-05-09T05:54:29.252Z,101199.06
2023-05-09T05:56:57.664Z,101198.22
2023-05-09T05:59:26.291Z,101195.38
2023-05-09T06:01:54.955Z,101192.47
2023-05-09T06:04:23.570Z,101186.75
2023-05-09T06:06:52.381Z,101188.44
2023-05-09T06:09:20.989Z,101192.28
2023-05-09T06:11:50.885Z,101191.22
2023-05-09T06:14:19.224Z,101183.59
2023-05-09T06:16:48.033Z,101181.69
2023-05-09T06:19:16.501Z,101168.97
2023-05-09T06:21:45.060Z,101159.00
2023-05-09T06:24:23.470Z,101170.00
2023-05-09T06:26:57.846Z,101168.94
2023-05-09T06:29:26.371Z,101156.19
2023-05-09T06:31:55.645Z,101160.22
2023-05-09T06:34:24.311Z,101169.78
2023-05-09T06:36:52.771Z,101168.25
2023-05-09T06:39:21.143Z,101164.63
2023-05-09T06:41:49.520Z,101162.34
2023-05-09T06:44:27.329Z,101154.84
2023-05-09T06:46:55.860Z,101156.72
2023-05-09T06:49:24.181Z,101156.19
2023-05-09T06:51:52.525Z,101139.66
2023-05-09T06:54:20.976Z,101142.38
2023-05-09T06:56:49.358Z,101142.59
2023-05-09T06:59:18.132Z,101141.75
2023-05-09T07:01:48.178Z,101133.31
2023-05-09T07:04:16.640Z,101132.84
2023-05-09T07:06:45.077Z,101130.34
2023-05-09T07:09:15.417Z,101126.50
2023-05-09T07:11:43.839Z,101127.03
2023-05-09T07:14:12.289Z,101114.47
2023-05-09T07:16:40.668Z,101112.41
2023-05-09T07:19:10.945Z,101109.66
2023-05-09T07:21:39.388Z,101106.44
2023-05-09T07:24:08.446Z,101111.88
2023-05-09T07:26:36.977Z,101112.06
2023-05-09T07:29:05.451Z,101119.59
2023-05-09T07:31:37.257Z,101109.69
2023-05-09T07:34:06.070Z,101115.50
2023-05-09T07:39:08.304Z,101105.03
2023-05-09T07:41:36.614Z,101101.03
2023-05-09T07:44:05.060Z,101103.97
2023-05-09T07:46:33.463Z,101099.56
2023-05-09T07:49:01.788Z,101103.34
2023-05-09T07:51:30.287Z,101105.81
2023-05-09T07:54:00.133Z,101098.28
2023-05-09T07:56:28.571Z,101106.25
2023-05-09T07:58:57.014Z,101105.81
2023-05-09T08:01:25.398Z,101103.91
2023-05-09T08:03:54.031Z,101103.53
2023-05-09T08:06:22.510Z,101105.91
2023-05-09T08:08:51.279Z,101110.16
2023-05-09T08:11:21.508Z,101104.31
2023-05-09T08:13:49.948Z,101105.78
2023-05-09T08:16:18.304Z,101103.28
2023-05-09T08:18:47.246Z,101098.03
2023-05-09T08:21:15.601Z,101102.03
2023-05-09T08:23:44.011Z,101096.41
2023-05-09T08:26:12.591Z,101093.88
2023-05-09T08:28:42.394Z,101085.34
2023-05-09T08:31:10.900Z,101088.06
2023-05-09T08:33:41.705Z,101079.06
2023-05-09T08:36:10.732Z,101079.09
2023-05-09T08:38:40.790Z,101076.78
2023-05-09T08:41:09.345Z,101079.31
2023-05-09T08:43:39.342Z,101068.03
2023-05-09T08:46:11.235Z,101064.63
2023-05-09T08:48:41.105Z,101072.16
2023-05-09T08:51:11.157Z,101063.38
2023-05-09T08:53:41.249Z,101071.13
2023-05-09T08:56:10.007Z,101067.75
2023-05-09T08:58:39.446Z,101068.78
2023-05-09T09:01:09.896Z,101069.63
2023-05-09T09:03:39.306Z,101070.00
2023-05-09T09:06:10.512Z,101068.09
2023-05-09T09:08:39.276Z,101069.13
2023-05-09T09:11:08.617Z,101063.69
2023-05-09T09:13:41.272Z,101063.25
2023-05-09T09:16:19.945Z,101060.94
2023-05-09T09:18:49.206Z,101060.69
2023-05-09T09:21:18.083Z,101058.75
2023-05-09T09:23:48.754Z,101038.00
2023-05-09T09:26:17.596Z,101063.44
2023-05-09T09:28:45.932Z,101055.22
2023-05-09T09:31:22.999Z,101061.44
2023-05-09T09:33:52.447Z,101062.91
2023-05-09T09:36:29.019Z,101060.81
2023-05-09T09:39:01.598Z,101056.19
2023-05-09T09:41:34.243Z,101055.97
2023-05-09T09:44:09.483Z,101047.78
2023-05-09T09:46:46.697Z,101049.44
2023-05-09T09:49:15.920Z,101051.13
2023-05-09T09:51:44.757Z,101050.06
2023-05-09T09:54:14.337Z,101047.97
2023-05-09T09:56:45.074Z,101058.88
2023-05-09T09:59:14.731Z,101051.13
2023-05-09T10:02:06.611Z,101052.34
2023-05-09T10:04:39.209Z,101051.06
2023-05-09T10:07:09.028Z,101037.53
2023-05-09T10:09:39.018Z,101040.22
2023-05-09T10:12:09.615Z,101033.88
2023-05-09T10:14:43.313Z,101030.47
2023-05-09T10:17:16.108Z,101022.59
2023-05-09T10:19:47.720Z,101020.84
2023-05-09T10:22:19.404Z,101019.13
2023-05-09T10:24:52.588Z,100996.91
2023-05-09T10:27:24.018Z,101007.69
2023-05-09T10:29:58.805Z,101007.16
2023-05-09T10:32:33.261Z,101003.47
2023-05-09T10:35:07.008Z,101003.97
2023-05-09T10:37:35.629Z,100972.97
2023-05-09T10:40:05.973Z,100999.34
2023-05-09T10:42:34.390Z,100994.13
2023-05-09T10:45:03.251Z,100984.56
2023-05-09T10:47:33.602Z,100973.16
2023-05-09T10:50:02.438Z,100969.34
2023-05-09T10:52:34.492Z,100972.94
2023-05-09T10:55:04.375Z,100977.56
2023-05-09T10:57:33.456Z,100967.91
2023-05-09T11:00:02.018Z,100968.63
2023-05-09T11:02:32.554Z,100968.25
2023-05-09T11:05:18.770Z,100964.69
2023-05-09T11:07:48.332Z,100949.91
2023-05-09T11:10:18.666Z,100971.66
2023-05-09T11:12:58.364Z,100966.19
2023-05-09T11:15:28.056Z,100961.34
2023-05-09T11:18:08.137Z,100946.22
2023-05-09T11:20:44.444Z,100957.91
2023-05-09T11:23:15.911Z,100962.91
2023-05-09T11:25:47.556Z,100952.81
2023-05-09T11:28:29.042Z,100952.22
2023-05-09T11:31:11.418Z,100938.41
2023-05-09T11:33:40.877Z,100941.84
2023-05-09T11:36:25.513Z,100949.34
2023-05-09T11:39:06.627Z,100944.25
2023-05-09T11:41:43.263Z,100942.94
2023-05-09T11:44:19.206Z,100945.69
2023-05-09T11:46:48.528Z,100951.16
2023-05-09T11:49:17.296Z,100949.03
2023-05-09T11:51:47.106Z,100955.56
2023-05-09T11:54:15.623Z,100945.69
2023-05-09T11:56:44.397Z,100944.94
2023-05-09T11:59:14.864Z,100954.09
2023-05-09T12:01:43.893Z,100947.03
2023-05-09T12:04:12.469Z,100945.84
2023-05-09T12:06:41.143Z,100937.09
2023-05-09T12:09:11.715Z,100945.66
2023-05-09T12:11:40.108Z,100940.25
2023-05-09T12:14:08.784Z,100940.72
2023-05-09T12:16:46.360Z,100945.19
2023-05-09T12:19:15.286Z,100933.06
2023-05-09T12:21:43.687Z,100838.06
2023-05-09T12:24:13.482Z,100941.66
2023-05-09T12:26:42.013Z,100943.78
2023-05-09T12:29:10.521Z,100949.34
2023-05-09T12:31:39.150Z,100955.03
2023-05-09T12:34:08.093Z,100957.44
2023-05-09T12:36:37.275Z,100960.84
2023-05-09T12:39:10.812Z,100958.44
2023-05-09T12:41:57.322Z,100956.84
2023-05-09T12:44:28.294Z,100959.78
2023-05-09T12:46:58.406Z,100960.47
2023-05-09T12:49:27.172Z,100956.56
2023-05-09T12:51:56.870Z,100958.91
2023-05-09T12:54:27.088Z,100960.19
2023-05-09T12:56:59.372Z,100968.59
2023-05-09T12:59:29.342Z,100968.03
2023-05-09T13:01:59.079Z,100969.00
2023-05-09T13:04:28.976Z,100976.03
2023-05-09T13:07:00.122Z,100956.84
2023-05-09T13:09:28.793Z,100994.75
2023-05-09T13:11:58.562Z,101003.44
2023-05-09T13:14:27.076Z,101012.69
2023-05-09T13:16:55.684Z,101015.25
2023-05-09T13:19:24.117Z,101017.97
2023-05-09T13:21:52.915Z,101026.59
2023-05-09T13:24:21.261Z,101038.53
2023-05-09T13:26:49.704Z,101045.19
2023-05-09T13:29:19.439Z,101052.94
2023-05-09T13:31:47.899Z,101053.28
2023-05-09T13:34:18.518Z,101050.31
2023-05-09T13:36:46.801Z,101058.84
2023-05-09T13:39:15.096Z,101050.84
2023-05-09T13:41:43.704Z,101045.34
2023-05-09T13:44:13.055Z,101046.81
2023-05-09T13:46:43.255Z,101037.94
2023-05-09T13:49:11.916Z,101029.97
2023-05-09T13:51:41.250Z,101020.72
2023-05-09T13:54:12.830Z,101020.25
2023-05-09T13:56:41.779Z,101014.34
2023-05-09T13:59:10.651Z,101017.28
2023-05-09T14:01:39.360Z,101020.19
2023-05-09T14:04:09.762Z,101017.69
2023-05-09T14:06:38.268Z,101018.75
2023-05-09T14:09:07.595Z,101020.19
2023-05-09T14:11:35.983Z,101013.53
2023-05-09T14:14:05.517Z,101021.22
2023-05-09T14:16:34.088Z,101019.34
2023-05-09T14:19:02.736Z,101023.13
2023-05-09T14:21:32.533Z,101013.50
2023-05-09T14:24:00.871Z,101018.28
2023-05-09T14:26:30.520Z,101012.22
2023-05-09T14:28:58.890Z,101015.13
2023-05-09T14:31:27.610Z,101012.81
2023-05-09T14:33:55.994Z,101010.44
2023-05-09T14:36:24.492Z,101001.03
2023-05-09T14:38:54.484Z,101008.78
2023-05-09T14:41:22.995Z,101001.22
2023-05-09T14:43:51.384Z,100997.84
2023-05-09T14:46:19.931Z,101001.97
2023-05-09T14:48:48.399Z,100998.63
2023-05-09T14:51:16.776Z,101007.31
2023-05-09T14:53:47.335Z,101009.00
2023-05-09T14:56:17.200Z,101007.69
2023-05-09T14:58:45.537Z,101010.16
2023-05-09T15:01:14.432Z,101016.00
2023-05-09T15:03:42.883Z,101023.69
2023-05-09T15:06:12.464Z,101019.28
2023-05-09T15:08:42.011Z,101030.31
2023-05-09T15:11:10.379Z,101019.69
2023-05-09T15:13:40.165Z,101024.00
2023-05-09T15:16:09.178Z,101021.09
2023-05-09T15:18:37.628Z,101014.63
2023-05-09T15:21:06.546Z,101015.66
2023-05-09T15:23:36.060Z,101023.16
2023-05-09T15:26:04.626Z,101025.03
2023-05-09T15:28:33.050Z,101018.13
2023-05-09T15:31:03.892Z,101014.13
2023-05-09T15:33:32.763Z,101016.19
2023-05-09T15:36:01.783Z,101015.75
2023-05-09T15:38:30.734Z,101013.63
2023-05-09T15:40:59.112Z,101012.13
2023-05-09T15:43:28.562Z,101006.06
2023-05-09T15:45:57.258Z,101011.88
2023-05-09T15:48:27.370Z,101016.44
2023-05-09T15:50:55.787Z,101022.06
2023-05-09T15:53:24.378Z,101019.34
2023-05-09T15:55:52.787Z,101008.72
2023-05-09T15:58:21.187Z,100997.69
2023-05-09T16:00:49.773Z,100996.00
2023-05-09T16:03:18.647Z,101001.22
2023-05-09T16:05:48.583Z,100996.47
2023-05-09T16:08:17.237Z,101000.84
2023-05-09T16:10:49.084Z,101000.66
2023-05-09T16:13:18.325Z,100994.19
2023-05-09T16:15:48.038Z,101003.16
2023-05-09T16:18:16.528Z,101003.38
2023-05-09T16:20:45.131Z,101000.66
2023-05-09T16:23:14.912Z,101004.19
2023-05-09T16:25:43.288Z,101001.88
2023-05-09T16:28:11.758Z,101012.72
2023-05-09T16:30:40.132Z,101016.66
2023-05-09T16:33:08.809Z,101028.50
2023-05-09T16:35:37.367Z,101025.16
2023-05-09T16:38:05.690Z,101020.13
2023-05-09T16:40:35.561Z,101020.31
2023-05-09T16:43:04.244Z,101020.91
2023-05-09T16:45:32.636Z,101024.66
2023-05-09T16:48:02.377Z,101032.13
2023-05-09T16:50:31.036Z,101021.28
2023-05-09T16:52:59.498Z,101024.38
2023-05-09T16:55:27.971Z,101014.38
2023-05-09T16:57:57.735Z,101006.91
2023-05-09T17:00:26.324Z,101004.19
2023-05-09T17:02:54.924Z,101005.41
2023-05-09T17:05:23.575Z,101003.16
2023-05-09T17:07:51.964Z,101004.84
2023-05-09T17:10:20.428Z,101012.78
2023-05-09T17:12:48.854Z,101022.19
2023-05-09T17:15:18.665Z,101007.22
2023-05-09T17:17:48.175Z,100993.59
2023-05-09T17:20:16.997Z,100998.31
2023-05-09T17:22:45.656Z,100993.47
2023-05-09T17:25:14.964Z,100979.47
2023-05-09T17:27:45.217Z,100980.84
2023-05-09T17:30:14.880Z,100976.00
2023-05-09T17:32:44.955Z,100971.38
2023-05-09T17:35:13.952Z,100965.50
2023-05-09T17:37:42.652Z,100979.63
2023-05-09T17:40:12.189Z,100983.72
2023-05-09T17:42:42.035Z,100985.31
2023-05-09T17:45:12.488Z,100982.16
2023-05-09T17:47:41.489Z,100976.91
2023-05-09T17:50:14.835Z,100975.25
2023-05-09T17:52:43.792Z,100965.06
2023-05-09T17:55:14.912Z,100959.66
2023-05-09T17:57:43.569Z,100951.16
2023-05-09T18:00:14.326Z,100953.88
2023-05-09T18:02:43.102Z,100943.19
2023-05-09T18:05:12.961Z,100960.25
2023-05-09T18:07:41.430Z,100960.25
2023-05-09T18:10:10.991Z,100963.81
2023-05-09T18:12:39.469Z,100971.25
2023-05-09T18:15:09.127Z,100972.28
2023-05-09T18:17:39.675Z,100971.63
2023-05-09T18:20:15.153Z,100966.41
2023-05-09T18:22:45.347Z,100961.38
2023-05-09T18:25:13.854Z,100966.59
2023-05-09T18:27:42.776Z,100968.66
2023-05-09T18:30:11.814Z,100968.00
2023-05-09T18:32:40.429Z,100968.94
2023-05-09T18:35:10.480Z,100971.16
2023-05-09T18:37:40.366Z,100975.50
2023-05-09T18:40:15.905Z,100958.22
2023-05-09T18:42:46.768Z,100979.22
2023-05-09T18:45:22.002Z,100972.22
2023-05-09T18:47:51.324Z,100975.44
2023-05-09T18:50:19.889Z,100972.28
2023-05-09T18:52:49.725Z,100972.66
2023-05-09T18:55:19.909Z,100963.03
2023-05-09T18:57:48.420Z,100975.25
2023-05-09T19:00:17.803Z,100972.34
2023-05-09T19:02:46.450Z,100977.53
2023-05-09T19:05:16.042Z,100983.28
2023-05-09T19:07:44.402Z,100984.00
2023-05-09T19:10:18.171Z,100988.31
2023-05-09T19:12:47.304Z,100979.41
2023-05-09T19:15:15.927Z,100992.13
2023-05-09T19:17:44.437Z,100992.41
2023-05-09T19:20:14.204Z,100997.97
2023-05-09T19:22:48.339Z,101001.03
2023-05-09T19:25:18.925Z,101003.91
2023-05-09T19:27:48.022Z,101015.59
2023-05-09T19:30:17.115Z,101015.31
2023-05-09T19:32:45.992Z,101025.97
2023-05-09T19:35:14.452Z,101020.59
2023-05-09T19:37:42.898Z,101019.63
2023-05-09T19:40:11.997Z,101024.22
2023-05-09T19:42:42.055Z,101035.19
2023-05-09T19:45:11.501Z,101037.91
2023-05-09T19:47:39.891Z,101039.44
2023-05-09T19:50:10.226Z,101043.44
2023-05-09T19:52:38.742Z,101045.13
2023-05-09T19:55:08.017Z,101032.84
2023-05-09T19:57:36.533Z,101034.69
2023-05-09T20:00:07.469Z,101032.00
2023-05-09T20:02:36.961Z,101045.19
2023-05-09T20:05:05.626Z,101046.91
2023-05-09T20:07:34.079Z,101039.16
2023-05-09T20:10:03.675Z,101037.88
2023-05-09T20:12:33.040Z,101031.44
2023-05-09T20:15:02.097Z,101042.06
2023-05-09T20:17:32.302Z,101048.47
2023-05-09T20:20:00.701Z,101049.63
2023-05-09T20:22:29.230Z,101054.03
2023-05-09T20:24:57.641Z,101055.03
2023-05-09T20:27:26.456Z,101054.38
2023-05-09T20:29:54.967Z,101049.66
2023-05-09T20:32:23.981Z,101054.38
2023-05-09T20:34:53.741Z,101048.31
2023-05-09T20:37:22.234Z,101053.53
2023-05-09T20:39:50.733Z,101054.69
2023-05-09T20:42:19.424Z,101060.41
2023-05-09T20:44:48.829Z,101055.56
2023-05-09T20:47:18.286Z,101056.38
2023-05-09T20:49:46.783Z,101056.69
2023-05-09T20:52:16.809Z,101061.91
2023-05-09T20:54:47.192Z,101064.09
2023-05-09T20:57:15.693Z,101067.97
2023-05-09T20:59:44.251Z,101057.72
2023-05-09T21:02:13.752Z,101059.06
2023-05-09T21:04:42.233Z,101061.91
2023-05-09T21:07:12.103Z,101066.09
2023-05-09T21:09:42.784Z,101065.44
2023-05-09T21:12:11.397Z,101074.72
2023-05-09T21:14:39.878Z,101065.59
2023-05-09T21:17:09.288Z,101052.31
2023-05-09T21:19:37.779Z,101056.00
2023-05-09T21:22:06.249Z,101054.31
2023-05-09T21:24:34.734Z,101052.28
2023-05-09T21:27:04.938Z,101060.34
2023-05-09T21:29:33.388Z,101063.38
2023-05-09T21:32:01.818Z,101059.69
2023-05-09T21:34:30.322Z,101055.13
2023-05-09T21:36:58.698Z,101066.75
2023-05-09T21:39:27.061Z,101062.22
2023-05-09T21:41:55.447Z,101055.84
2023-05-09T21:44:25.348Z,101062.59
2023-05-09T21:46:53.820Z,101067.13
2023-05-09T21:49:22.279Z,101062.25
2023-05-09T21:51:50.775Z,101061.59
2023-05-09T21:54:19.233Z,101058.75
2023-05-09T21:56:47.808Z,101047.78
2023-05-09T21:59:17.827Z,101056.06
2023-05-09T22:01:53.942Z,101054.38
2023-05-09T22:04:22.530Z,101055.88
2023-05-09T22:06:50.964Z,101058.25
2023-05-09T22:09:19.480Z,101053.72
2023-05-09T22:11:47.829Z,101052.69
2023-05-09T22:14:16.338Z,101058.72
2023-05-09T22:16:44.784Z,101047.44
2023-05-09T22:19:14.740Z,101051.16
2023-05-09T22:21:43.131Z,101055.38
2023-05-09T22:24:11.704Z,101049.66
2023-05-09T22:26:40.126Z,101042.91
2023-05-09T22:29:08.805Z,101046.44
2023-05-09T22:31:37.514Z,101046.94
2023-05-09T22:34:06.225Z,101059.75
2023-05-09T22:36:36.035Z,101064.44
2023-05-09T22:39:04.638Z,101060.09
2023-05-09T22:41:32.986Z,101073.56
2023-05-09T22:44:01.432Z,101068.19
2023-05-09T22:46:29.836Z,101081.81
2023-05-09T22:48:58.351Z,101080.97
2023-05-09T22:51:27.872Z,101088.03
2023-05-09T22:53:57.649Z,101097.09
2023-05-09T22:56:26.535Z,101094.41
2023-05-09T22:58:54.900Z,101091.03
2023-05-09T23:01:23.321Z,101084.28
2023-05-09T23:03:51.765Z,101090.84
2023-05-09T23:06:20.384Z,101098.78
2023-05-09T23:08:48.912Z,101100.47
2023-05-09T23:11:20.528Z,101101.13
2023-05-09T23:13:48.913Z,101099.13
2023-05-09T23:16:17.417Z,101100.66
2023-05-09T23:18:46.007Z,101097.94
2023-05-09T23:21:14.289Z,101102.00
2023-05-09T23:23:42.732Z,101107.22
2023-05-09T23:26:11.134Z,101095.59
2023-05-09T23:28:40.888Z,101090.06
2023-05-09T23:31:09.916Z,101095.13
2023-05-09T23:33:38.436Z,101090.91
2023-05-09T23:36:07.333Z,101092.75
2023-05-09T23:38:35.722Z,101095.97
2023-05-09T23:41:04.116Z,101098.13
2023-05-09T23:43:32.830Z,101100.81
2023-05-09T23:46:02.658Z,101102.69
2023-05-09T23:48:31.189Z,101101.53
2023-05-09T23:50:59.522Z,101086.34
2023-05-09T23:53:27.994Z,101088.03
2023-05-09T23:55:56.469Z,101086.84
2023-05-09T23:58:24.870Z,101081.63
